Terminal Aerodrome Forecast
Issued by NWS

Home | Current Version | Previous Version | Text Only | Print | Product List | Glossary On
Versions: 1 2 3 4 5 6 7 8 9 10 11 12
000
FTUS42 TJSJ 251100
TAFIST
TAF
TIST 251135Z 2512/2612 07012KT P6SM VCSH FEW030
     FM251300 09014G22KT P6SM VCSH SCT030
     FM252300 08008KT P6SM VCSH FEW030
      AMD NOT SKED=

USA.gov is the U.S. government's official web portal to all federal, state and local government web resources and services.